Vermillion, South Dakota
Current Conditions -  °F | °C
As of 11:35 AM on Thursday 30 Oct 2014 (Local Time) from KYKN Reporting Station
Clear Clear  
Wind Chill: 50°   Ceiling: Unl
Heat Index: 50°   Visibility: 10mi
Dew Point: 39°   Wind: 20mph
Humidity: 66%   Direction: 320°NW
Pressure: 30.13"   Gusts: 23mph
Location:  42.79°N, 96.93°W
Report Text: KYKN 301635Z AUTO 32017G20KT 10SM CLR 10/04 A3013 RMK AO1
Loading
Personal Weather Stations






























Interactive Weather Map
Tropical Storm Tracking
New forecast layout! Learn more

10-Day Weather Forecast

Advertisements
Track Severe Weather on mobile